Time;durP1;ratioP1;P1;durP2;ratioP2;P2;SDS_P1;SDS_P2;PMS_P1;PMS_P2;Temp;Humidity;BMP_temperature;BMP_pressure;BME280_temperature;BME280_humidity;BME280_pressure;Samples;Min_cycle;Max_cycle;Signal;HPM_P1;HPM_P2
2021/12/29 00:00:41;;;;;;;;;;;;;;;9.35;100.00;97685.03;5072755;28;19932;-75
2021/12/29 00:03:09;;;;;;;;;;;;;;;9.27;100.00;97678.13;5067637;28;19942;-75
2021/12/29 00:05:36;;;;;;;;;;;;;;;9.41;100.00;97672.06;5072318;28;20550;-75
2021/12/29 00:08:05;;;;;;;;;;;;;;;9.51;100.00;97665.38;5072094;28;19928;-75
2021/12/29 00:10:32;;;;;;;;;;;;;;;9.91;100.00;97661.56;5072458;28;19962;-75
2021/12/29 00:13:04;;;;;;;;;;;;;;;10.16;100.00;97641.94;5055704;28;20015;-75
2021/12/29 00:15:31;;;;;;;;;;;;;;;10.30;100.00;97635.06;5072241;28;19931;-76
2021/12/29 00:17:58;;;;;;;;;;;;;;;10.11;100.00;97633.38;5073609;28;19931;-75
2021/12/29 00:20:28;;;;;;;;;;;;;;;10.22;100.00;97636.56;5072315;28;20074;-75
2021/12/29 00:22:56;;;;;;;;;;;;;;;10.24;100.00;97645.25;5072236;28;19924;-75
2021/12/29 00:25:23;;;;;;;;;;;;;;;9.89;100.00;97649.31;5055650;28;19986;-75
2021/12/29 00:27:54;;;;;;;;;;;;;;;9.84;100.00;97655.47;5072731;28;19924;-75
2021/12/29 00:30:21;;;;;;;;;;;;;;;9.98;100.00;97671.69;5073377;28;19950;-75
2021/12/29 00:33:09;;;;;;;;;;;;;;;10.00;100.00;97669.22;5056414;28;19924;-76
2021/12/29 00:35:54;;;;;;;;;;;;;;;9.18;100.00;97654.50;5076213;28;19962;-75
2021/12/29 00:39:02;;;;;;;;;;;;;;;8.70;100.00;97677.13;5076397;28;19924;-75
2021/12/29 00:41:51;;;;;;;;;;;;;;;8.62;100.00;97681.34;5062622;28;19978;-75
2021/12/29 00:44:36;;;;;;;;;;;;;;;8.28;100.00;97686.75;5077137;28;19924;-75
2021/12/29 00:47:11;;;;;;;;;;;;;;;8.19;100.00;97694.94;5059369;28;20403;-75
2021/12/29 00:49:38;;;;;;;;;;;;;;;8.29;100.00;97684.72;5075653;28;20058;-75
2021/12/29 00:52:07;;;;;;;;;;;;;;;8.65;100.00;97682.47;5076226;28;19924;-75
2021/12/29 00:54:38;;;;;;;;;;;;;;;9.05;100.00;97678.81;5075730;28;19954;-75
2021/12/29 00:57:05;;;;;;;;;;;;;;;8.98;100.00;97695.75;5075936;28;19925;-75
2021/12/29 00:59:33;;;;;;;;;;;;;;;9.04;100.00;97707.88;5059066;28;19929;-75
2021/12/29 01:01:59;;;;;;;;;;;;;;;9.11;100.00;97709.69;5075927;28;19925;-75
2021/12/29 01:04:26;;;;;;;;;;;;;;;9.18;100.00;97707.44;5058838;28;19931;-76
2021/12/29 01:06:54;;;;;;;;;;;;;;;9.10;100.00;97708.91;5076726;28;20400;-76
2021/12/29 01:09:23;;;;;;;;;;;;;;;9.03;100.00;97686.84;5076874;28;19932;-75
2021/12/29 01:11:54;;;;;;;;;;;;;;;8.97;100.00;97693.41;5075511;28;20005;-75
2021/12/29 01:14:24;;;;;;;;;;;;;;;8.74;100.00;97683.38;5058754;28;19931;-75
2021/12/29 01:16:51;;;;;;;;;;;;;;;8.68;100.00;97687.13;5076637;28;19924;-75
2021/12/29 01:19:20;;;;;;;;;;;;;;;8.73;100.00;97701.31;5075136;28;19924;-75
2021/12/29 01:21:49;;;;;;;;;;;;;;;8.67;100.00;97697.53;5058703;28;19924;-76
2021/12/29 01:24:17;;;;;;;;;;;;;;;8.44;100.00;97683.88;5075117;28;19928;-75
2021/12/29 01:26:45;;;;;;;;;;;;;;;8.05;100.00;97689.75;5076389;28;19925;-75
2021/12/29 01:29:13;;;;;;;;;;;;;;;8.29;100.00;97693.06;5075175;28;19951;-75
2021/12/29 01:31:41;;;;;;;;;;;;;;;8.23;100.00;97680.94;5076435;28;19924;-76
2021/12/29 01:34:08;;;;;;;;;;;;;;;8.26;100.00;97672.50;5058413;28;19931;-75
2021/12/29 01:36:36;;;;;;;;;;;;;;;7.39;100.00;97672.88;5074874;28;19924;-76
2021/12/29 01:39:06;;;;;;;;;;;;;;;7.68;100.00;97682.00;5074857;28;19924;-76
2021/12/29 01:41:34;;;;;;;;;;;;;;;8.12;100.00;97675.63;5074963;28;19925;-76
2021/12/29 01:44:04;;;;;;;;;;;;;;;7.87;100.00;97672.78;5075925;28;19980;-76
2021/12/29 01:46:34;;;;;;;;;;;;;;;7.96;100.00;97667.34;5055072;28;19932;-76
2021/12/29 01:49:04;;;;;;;;;;;;;;;8.09;100.00;97670.19;5070726;28;19925;-76
2021/12/29 01:51:32;;;;;;;;;;;;;;;8.04;100.00;97665.91;5056068;28;20426;-76
2021/12/29 01:54:15;;;;;;;;;;;;;;;7.96;100.00;97672.13;5059562;28;19929;-75
2021/12/29 01:56:44;;;;;;;;;;;;;;;7.89;100.00;97670.31;5041709;28;19933;-75
2021/12/29 01:59:14;;;;;;;;;;;;;;;7.51;100.00;97672.16;5074347;28;19934;-76
2021/12/29 02:01:42;;;;;;;;;;;;;;;7.90;100.00;97674.69;5075856;28;19970;-75
2021/12/29 02:04:10;;;;;;;;;;;;;;;8.07;100.00;97667.84;5041674;28;19925;-75
2021/12/29 02:06:37;;;;;;;;;;;;;;;8.05;100.00;97667.50;5074694;28;20401;-76
2021/12/29 02:09:05;;;;;;;;;;;;;;;7.96;100.00;97663.78;5075594;28;19970;-76
2021/12/29 02:11:37;;;;;;;;;;;;;;;8.03;100.00;97663.59;5074456;28;19925;-75
2021/12/29 02:14:07;;;;;;;;;;;;;;;8.10;100.00;97675.31;5074450;28;19925;-75
2021/12/29 02:16:34;;;;;;;;;;;;;;;8.11;100.00;97665.75;5074486;28;20024;-75
2021/12/29 02:19:03;;;;;;;;;;;;;;;7.93;100.00;97671.03;5074767;28;19925;-75
2021/12/29 02:21:32;;;;;;;;;;;;;;;7.74;100.00;97669.13;5074498;28;19932;-75
2021/12/29 02:26:38;;;;;;;;;;;;;;;8.06;100.00;97657.13;5066311;28;19959;-75
2021/12/29 02:29:06;;;;;;;;;;;;;;;7.80;100.00;97661.81;5054144;28;20000;-75
2021/12/29 02:31:36;;;;;;;;;;;;;;;7.45;100.00;97657.22;5053469;28;19932;-75
2021/12/29 02:34:03;;;;;;;;;;;;;;;7.45;100.00;97656.44;5070212;28;19925;-75
2021/12/29 02:36:30;;;;;;;;;;;;;;;7.59;100.00;97667.97;5053925;28;20299;-75
2021/12/29 02:38:57;;;;;;;;;;;;;;;7.41;100.00;97658.53;5055063;28;20031;-75
2021/12/29 02:41:27;;;;;;;;;;;;;;;7.22;100.00;97654.66;5053429;28;20264;-75
2021/12/29 02:44:00;;;;;;;;;;;;;;;7.45;100.00;97648.91;5065728;28;20035;-75
2021/12/29 02:46:29;;;;;;;;;;;;;;;7.51;100.00;97649.13;5054256;28;20278;-75
2021/12/29 02:49:02;;;;;;;;;;;;;;;7.61;100.00;97645.28;5053967;28;19925;-75
2021/12/29 02:51:30;;;;;;;;;;;;;;;7.62;100.00;97633.72;5053908;28;19931;-75
2021/12/29 02:53:58;;;;;;;;;;;;;;;7.59;100.00;97645.72;5072073;28;20023;-75
2021/12/29 02:56:26;;;;;;;;;;;;;;;7.55;100.00;97655.38;5069252;28;19929;-76
2021/12/29 02:58:53;;;;;;;;;;;;;;;7.48;100.00;97653.56;5053694;28;20300;-75
2021/12/29 03:01:23;;;;;;;;;;;;;;;7.20;100.00;97654.28;5053768;28;19970;-75
2021/12/29 03:03:50;;;;;;;;;;;;;;;7.07;100.00;97639.53;5037210;28;20296;-75
2021/12/29 03:06:17;;;;;;;;;;;;;;;6.80;100.00;97653.66;5053695;28;19925;-75
2021/12/29 03:08:45;;;;;;;;;;;;;;;7.13;100.00;97660.78;5040524;28;19930;-75
2021/12/29 03:11:14;;;;;;;;;;;;;;;7.32;100.00;97656.34;5040439;28;19970;-75
2021/12/29 03:13:41;;;;;;;;;;;;;;;7.33;100.00;97653.16;5074409;28;19998;-75
2021/12/29 03:16:08;;;;;;;;;;;;;;;7.48;100.00;97638.91;5074632;28;19928;-75
2021/12/29 03:18:39;;;;;;;;;;;;;;;7.60;100.00;97636.19;5057344;28;20291;-75
2021/12/29 03:21:06;;;;;;;;;;;;;;;7.84;100.00;97643.06;5056694;28;19924;-75
2021/12/29 03:23:36;;;;;;;;;;;;;;;7.95;100.00;97646.31;5056380;28;19928;-75
2021/12/29 03:26:03;;;;;;;;;;;;;;;7.98;100.00;97645.44;5073032;28;20311;-75
2021/12/29 03:28:30;;;;;;;;;;;;;;;8.06;100.00;97638.47;5074302;28;20519;-75
2021/12/29 03:30:57;;;;;;;;;;;;;;;8.48;100.00;97628.88;5073208;28;20360;-75
2021/12/29 03:33:25;;;;;;;;;;;;;;;8.67;100.00;97605.63;5074337;28;19970;-76
2021/12/29 03:35:56;;;;;;;;;;;;;;;8.72;100.00;97599.50;5055970;28;20383;-75
2021/12/29 03:38:24;;;;;;;;;;;;;;;8.79;100.00;97599.28;5056649;28;19924;-75
2021/12/29 03:40:52;;;;;;;;;;;;;;;8.70;100.00;97590.81;5072912;28;20359;-75
2021/12/29 03:43:19;;;;;;;;;;;;;;;8.89;100.00;97584.22;5073043;28;19924;-75
2021/12/29 03:45:47;;;;;;;;;;;;;;;9.01;100.00;97583.41;5055944;28;19924;-75
2021/12/29 03:48:15;;;;;;;;;;;;;;;9.11;100.00;97592.66;5072404;28;19982;-75
2021/12/29 03:50:42;;;;;;;;;;;;;;;8.87;100.00;97599.81;5073990;28;19924;-75
2021/12/29 03:53:09;;;;;;;;;;;;;;;8.82;100.00;97603.97;5055813;28;19924;-75
2021/12/29 03:55:37;;;;;;;;;;;;;;;9.03;100.00;97613.63;5056084;28;20329;-76
2021/12/29 03:58:04;;;;;;;;;;;;;;;9.09;100.00;97612.63;5072667;28;19935;-75
2021/12/29 04:00:31;;;;;;;;;;;;;;;8.98;100.00;97606.59;5056305;28;19931;-75
2021/12/29 04:03:01;;;;;;;;;;;;;;;8.84;100.00;97607.09;5072638;28;19924;-76
2021/12/29 04:05:29;;;;;;;;;;;;;;;8.47;100.00;97604.28;5072352;28;19932;-75
2021/12/29 04:07:56;;;;;;;;;;;;;;;8.93;100.00;97604.41;5072513;28;19925;-75
2021/12/29 04:10:24;;;;;;;;;;;;;;;8.93;100.00;97595.25;5055673;28;19935;-75
2021/12/29 04:12:51;;;;;;;;;;;;;;;8.89;100.00;97592.56;5067244;28;19932;-75
2021/12/29 04:15:29;;;;;;;;;;;;;;;8.01;100.00;97577.03;5041609;28;19931;-75
2021/12/29 04:17:58;;;;;;;;;;;;;;;7.74;100.00;97569.06;5072396;28;19924;-75
2021/12/29 04:23:14;;;;;;;;;;;;;;;8.22;100.00;97565.28;5071280;28;20386;-75
2021/12/29 04:25:46;;;;;;;;;;;;;;;8.63;100.00;97568.75;5072274;28;20007;-75
2021/12/29 04:28:20;;;;;;;;;;;;;;;8.73;100.00;97573.22;5072511;28;19924;-75
2021/12/29 04:30:48;;;;;;;;;;;;;;;8.70;100.00;97570.53;5072521;28;19956;-75
2021/12/29 04:33:15;;;;;;;;;;;;;;;8.83;100.00;97566.50;5073428;28;19924;-75
2021/12/29 04:35:43;;;;;;;;;;;;;;;8.41;100.00;97561.53;5072116;28;19925;-75
2021/12/29 04:38:10;;;;;;;;;;;;;;;8.13;100.00;97574.28;5072117;28;19952;-76
2021/12/29 04:40:37;;;;;;;;;;;;;;;7.98;100.00;97581.47;5072133;28;19942;-76
2021/12/29 04:43:05;;;;;;;;;;;;;;;7.94;100.00;97569.66;5055622;28;19931;-75
2021/12/29 04:45:32;;;;;;;;;;;;;;;8.05;100.00;97556.25;5071875;28;19924;-75
2021/12/29 04:48:00;;;;;;;;;;;;;;;8.21;100.00;97558.16;5072376;28;19931;-75
2021/12/29 04:50:35;;;;;;;;;;;;;;;8.47;100.00;97554.97;5071950;28;20015;-75
2021/12/29 04:53:04;;;;;;;;;;;;;;;8.46;100.00;97542.28;5073207;28;19925;-76
2021/12/29 04:55:31;;;;;;;;;;;;;;;8.48;100.00;97539.81;5072154;28;19994;-75
2021/12/29 04:57:59;;;;;;;;;;;;;;;8.48;100.00;97537.03;5055608;28;20015;-75
2021/12/29 05:00:28;;;;;;;;;;;;;;;8.33;100.00;97530.34;5073052;28;20020;-75
2021/12/29 05:02:58;;;;;;;;;;;;;;;8.62;100.00;97522.66;5055379;28;19931;-75
2021/12/29 05:10:45;;;;;;;;;;;;;;;7.98;100.00;97495.25;5072093;28;19936;-75
2021/12/29 05:13:13;;;;;;;;;;;;;;;7.95;100.00;97498.91;5072883;28;20368;-75
2021/12/29 05:15:39;;;;;;;;;;;;;;;7.99;100.00;97502.38;5071840;28;20368;-75
2021/12/29 05:18:10;;;;;;;;;;;;;;;7.99;100.00;97490.47;5073125;28;19935;-75
2021/12/29 05:20:37;;;;;;;;;;;;;;;8.06;100.00;97487.47;5073490;28;19924;-75
2021/12/29 05:23:05;;;;;;;;;;;;;;;8.38;100.00;97495.63;5075374;28;20031;-76
2021/12/29 05:25:32;;;;;;;;;;;;;;;8.26;100.00;97491.63;5058922;28;19925;-76
2021/12/29 05:28:00;;;;;;;;;;;;;;;8.30;100.00;97483.94;5080851;28;19924;-75
2021/12/29 05:30:30;;;;;;;;;;;;;;;8.51;100.00;97491.59;5093478;28;19931;-75
2021/12/29 05:32:57;;;;;;;;;;;;;;;8.49;100.00;97494.06;5078946;28;20326;-75
2021/12/29 05:35:26;;;;;;;;;;;;;;;8.58;100.00;97493.38;5077742;28;19924;-75
2021/12/29 05:37:56;;;;;;;;;;;;;;;8.61;100.00;97509.97;5076052;28;19924;-75
2021/12/29 05:40:24;;;;;;;;;;;;;;;8.66;100.00;97497.50;5058876;28;19928;-76
2021/12/29 05:42:53;;;;;;;;;;;;;;;8.73;100.00;97495.25;5041682;28;19928;-75
2021/12/29 05:45:19;;;;;;;;;;;;;;;8.66;100.00;97495.47;5074910;28;19932;-76
2021/12/29 05:47:47;;;;;;;;;;;;;;;8.65;100.00;97493.13;5076213;28;19930;-75
2021/12/29 05:50:16;;;;;;;;;;;;;;;8.25;100.00;97487.31;5074885;28;20094;-75
2021/12/29 05:52:44;;;;;;;;;;;;;;;8.44;100.00;97477.13;5074584;28;20155;-75
2021/12/29 05:55:15;;;;;;;;;;;;;;;8.14;100.00;97474.91;5076091;28;19928;-75
2021/12/29 05:57:42;;;;;;;;;;;;;;;8.28;100.00;97469.72;5058296;28;19924;-75
2021/12/29 06:00:11;;;;;;;;;;;;;;;8.08;100.00;97469.13;5075679;28;19931;-75
2021/12/29 06:02:41;;;;;;;;;;;;;;;8.07;100.00;97464.00;5074863;28;20015;-75
2021/12/29 06:05:08;;;;;;;;;;;;;;;8.15;100.00;97457.75;5074557;28;19924;-75
2021/12/29 06:07:36;;;;;;;;;;;;;;;8.48;100.00;97436.81;5075531;28;20013;-75
2021/12/29 06:10:06;;;;;;;;;;;;;;;7.97;100.00;97438.06;5057945;28;19931;-75
2021/12/29 06:12:34;;;;;;;;;;;;;;;8.20;100.00;97445.31;5075084;28;19925;-75
2021/12/29 06:15:02;;;;;;;;;;;;;;;8.52;100.00;97437.50;5077307;28;19962;-75
2021/12/29 06:17:29;;;;;;;;;;;;;;;8.58;100.00;97432.94;5076757;28;19930;-76
2021/12/29 06:19:56;;;;;;;;;;;;;;;8.83;100.00;97420.94;5077681;28;20018;-75
2021/12/29 06:22:24;;;;;;;;;;;;;;;9.09;100.00;97423.16;5075161;28;19925;-76
2021/12/29 06:24:52;;;;;;;;;;;;;;;9.06;100.00;97418.50;5074353;28;19940;-75
2021/12/29 06:27:20;;;;;;;;;;;;;;;9.26;100.00;97420.97;5072492;28;19925;-75
2021/12/29 06:29:47;;;;;;;;;;;;;;;9.12;100.00;97411.09;5053621;28;20081;-75
2021/12/29 06:32:14;;;;;;;;;;;;;;;9.12;100.00;97411.09;5055183;28;20427;-75
2021/12/29 06:34:43;;;;;;;;;;;;;;;8.98;100.00;97403.25;5053451;28;19925;-75
2021/12/29 06:37:12;;;;;;;;;;;;;;;8.99;100.00;97395.69;5066709;28;19925;-75
2021/12/29 06:39:40;;;;;;;;;;;;;;;9.11;100.00;97392.84;5073205;28;19959;-75
2021/12/29 06:42:08;;;;;;;;;;;;;;;8.66;100.00;97389.69;5053193;28;19924;-75
2021/12/29 06:44:35;;;;;;;;;;;;;;;9.13;100.00;97393.16;5052435;28;20014;-75
2021/12/29 06:47:02;;;;;;;;;;;;;;;9.31;100.00;97392.50;5020105;28;19924;-75
2021/12/29 06:49:30;;;;;;;;;;;;;;;9.39;100.00;97391.00;5042216;28;19925;-76
2021/12/29 06:51:57;;;;;;;;;;;;;;;9.35;100.00;97392.38;5072793;28;19925;-76
2021/12/29 06:54:28;;;;;;;;;;;;;;;9.51;100.00;97383.81;5074121;28;19947;-75
2021/12/29 06:56:55;;;;;;;;;;;;;;;9.63;100.00;97392.09;5073374;28;19987;-75
2021/12/29 06:59:25;;;;;;;;;;;;;;;9.71;100.00;97378.66;5074633;28;20024;-75
2021/12/29 07:01:54;;;;;;;;;;;;;;;9.36;100.00;97374.44;5073241;28;20026;-75
2021/12/29 07:04:23;;;;;;;;;;;;;;;9.57;100.00;97373.63;5074538;28;19924;-75
2021/12/29 07:06:50;;;;;;;;;;;;;;;9.52;100.00;97366.63;5090161;28;20265;-75
2021/12/29 07:09:18;;;;;;;;;;;;;;;9.55;100.00;97368.50;5073033;28;19959;-75
2021/12/29 07:11:45;;;;;;;;;;;;;;;9.25;100.00;97362.91;5073161;28;19977;-75
2021/12/29 07:14:15;;;;;;;;;;;;;;;9.27;100.00;97363.97;5074062;28;19951;-75
2021/12/29 07:16:44;;;;;;;;;;;;;;;9.33;100.00;97353.03;5072215;28;19944;-75
2021/12/29 07:19:12;;;;;;;;;;;;;;;9.51;100.00;97359.47;5055462;28;20015;-75
2021/12/29 07:21:39;;;;;;;;;;;;;;;9.35;100.00;97358.91;5072524;28;19928;-76
2021/12/29 07:24:06;;;;;;;;;;;;;;;9.16;100.00;97344.13;5074114;28;20275;-76
2021/12/29 07:26:34;;;;;;;;;;;;;;;8.55;100.00;97322.47;5064743;28;20014;-75
2021/12/29 07:29:07;;;;;;;;;;;;;;;8.62;100.00;97307.50;5071913;28;20291;-75
2021/12/29 07:31:35;;;;;;;;;;;;;;;8.69;100.00;97298.91;5069432;28;20039;-76
2021/12/29 07:34:17;;;;;;;;;;;;;;;8.85;100.00;97279.22;5072126;28;20011;-74
2021/12/29 07:36:44;;;;;;;;;;;;;;;8.50;100.00;97264.59;5064045;28;20290;-74
2021/12/29 07:39:14;;;;;;;;;;;;;;;8.49;100.00;97265.84;5055373;28;19954;-74
2021/12/29 07:41:42;;;;;;;;;;;;;;;8.67;100.00;97265.97;5072994;28;20023;-74
2021/12/29 07:44:17;;;;;;;;;;;;;;;9.20;100.00;97263.94;5091390;28;19928;-75
2021/12/29 07:46:46;;;;;;;;;;;;;;;9.53;100.00;97255.88;5092888;28;19935;-74
2021/12/29 07:49:13;;;;;;;;;;;;;;;8.83;100.00;97253.84;5093876;28;19924;-74
2021/12/29 07:51:42;;;;;;;;;;;;;;;9.29;100.00;97252.06;5076033;28;19924;-74
2021/12/29 07:54:09;;;;;;;;;;;;;;;9.39;100.00;97242.53;5078119;28;20265;-74
2021/12/29 07:56:37;;;;;;;;;;;;;;;8.80;100.00;97230.47;5074552;28;19931;-75
2021/12/29 07:59:05;;;;;;;;;;;;;;;9.40;100.00;97247.63;5079534;28;19924;-75
2021/12/29 08:01:32;;;;;;;;;;;;;;;8.65;100.00;97237.78;5073178;28;19959;-75
2021/12/29 08:03:59;;;;;;;;;;;;;;;8.31;100.00;97229.53;5072400;28;19925;-75
2021/12/29 08:06:27;;;;;;;;;;;;;;;8.46;100.00;97241.69;5073051;28;20353;-75
2021/12/29 08:08:54;;;;;;;;;;;;;;;8.63;100.00;97250.63;5073711;28;19947;-76
2021/12/29 08:11:22;;;;;;;;;;;;;;;8.51;100.00;97243.88;5072818;28;19998;-76
2021/12/29 08:13:49;;;;;;;;;;;;;;;8.60;100.00;97229.25;5072881;28;19924;-79
2021/12/29 08:16:17;;;;;;;;;;;;;;;9.14;100.00;97218.41;5071871;28;19928;-76
2021/12/29 08:18:44;;;;;;;;;;;;;;;9.29;100.00;97230.53;5082113;28;19931;-78
2021/12/29 08:21:12;;;;;;;;;;;;;;;8.90;100.00;97237.66;5082958;28;19925;-79
2021/12/29 08:23:41;;;;;;;;;;;;;;;9.52;100.00;97241.16;5055143;28;20631;-78
2021/12/29 08:26:09;;;;;;;;;;;;;;;9.51;100.00;97247.19;5057931;28;19978;-78
2021/12/29 08:28:36;;;;;;;;;;;;;;;9.49;100.00;97236.50;5051700;28;19925;-78
2021/12/29 08:31:06;;;;;;;;;;;;;;;9.69;100.00;97219.38;5070130;28;19947;-78
2021/12/29 08:33:37;;;;;;;;;;;;;;;9.29;100.00;97213.03;5071605;28;20305;-79
2021/12/29 08:36:06;;;;;;;;;;;;;;;9.06;100.00;97215.13;5073295;28;20001;-78
2021/12/29 08:38:34;;;;;;;;;;;;;;;9.06;100.00;97206.78;5071339;28;19924;-79
2021/12/29 08:41:02;;;;;;;;;;;;;;;9.26;100.00;97220.31;5073070;28;19931;-79
2021/12/29 08:43:31;;;;;;;;;;;;;;;9.21;100.00;97234.09;5092146;28;20019;-79
2021/12/29 08:45:58;;;;;;;;;;;;;;;9.57;100.00;97223.84;5093266;28;19924;-76
2021/12/29 08:48:26;;;;;;;;;;;;;;;9.40;100.00;97196.69;5092849;28;19928;-77
2021/12/29 08:50:54;;;;;;;;;;;;;;;9.01;100.00;97199.00;5066385;28;19924;-77
2021/12/29 08:53:21;;;;;;;;;;;;;;;8.62;100.00;97183.03;5052838;28;19932;-77
2021/12/29 08:55:51;;;;;;;;;;;;;;;8.98;100.00;97176.88;5055348;28;20007;-76
2021/12/29 08:58:19;;;;;;;;;;;;;;;9.41;100.00;97164.78;5055241;28;19925;-76
2021/12/29 09:00:46;;;;;;;;;;;;;;;9.44;100.00;97161.06;5055871;28;19928;-76
2021/12/29 09:03:13;;;;;;;;;;;;;;;8.93;100.00;97169.91;5057153;28;19925;-77
2021/12/29 09:05:40;;;;;;;;;;;;;;;9.08;100.00;97154.19;5057128;28;19925;-78
2021/12/29 09:08:08;;;;;;;;;;;;;;;9.25;100.00;97156.69;5086784;28;20420;-78
2021/12/29 09:10:36;;;;;;;;;;;;;;;9.04;100.00;97142.38;5097279;28;19935;-77
2021/12/29 09:13:04;;;;;;;;;;;;;;;9.03;100.00;97146.41;5095514;28;20425;-78
2021/12/29 09:15:33;;;;;;;;;;;;;;;9.22;100.00;97149.25;5097170;28;19924;-77
2021/12/29 09:18:01;;;;;;;;;;;;;;;9.50;100.00;97140.50;5082357;28;19925;-75
2021/12/29 09:20:30;;;;;;;;;;;;;;;9.27;100.00;97131.94;5080153;28;20011;-76
2021/12/29 09:23:01;;;;;;;;;;;;;;;9.75;100.00;97145.00;5061426;28;19962;-77
2021/12/29 09:25:38;;;;;;;;;;;;;;;9.67;100.00;97127.81;5078122;28;19974;-76
2021/12/29 09:28:11;;;;;;;;;;;;;;;9.91;100.00;97130.75;5057972;28;19933;-76
2021/12/29 09:30:39;;;;;;;;;;;;;;;9.77;100.00;97117.44;5057503;28;19936;-75
2021/12/29 09:33:07;;;;;;;;;;;;;;;10.02;100.00;97125.50;5075954;28;19947;-77
2021/12/29 09:35:35;;;;;;;;;;;;;;;9.95;100.00;97120.25;5060496;28;19969;-77
2021/12/29 09:38:03;;;;;;;;;;;;;;;10.14;100.00;97130.16;5072993;28;19931;-77
2021/12/29 09:40:30;;;;;;;;;;;;;;;10.10;100.00;97132.34;5085771;28;19932;-77
2021/12/29 09:42:58;;;;;;;;;;;;;;;9.55;100.00;97125.94;5070785;28;20358;-77
2021/12/29 09:45:25;;;;;;;;;;;;;;;9.97;100.00;97126.09;5079461;28;20385;-77
2021/12/29 09:47:56;;;;;;;;;;;;;;;9.60;100.00;97102.25;5084734;28;20379;-77
2021/12/29 09:50:24;;;;;;;;;;;;;;;9.93;100.00;97095.59;5065781;28;19931;-77
2021/12/29 09:52:52;;;;;;;;;;;;;;;10.18;100.00;97084.09;5057789;28;19944;-77
2021/12/29 09:55:20;;;;;;;;;;;;;;;10.41;100.00;97082.66;5075185;28;19949;-77
2021/12/29 09:57:50;;;;;;;;;;;;;;;10.47;100.00;97078.78;5076180;28;20016;-77
2021/12/29 10:00:25;;;;;;;;;;;;;;;10.15;100.00;97084.25;5055439;28;19935;-79
2021/12/29 10:02:54;;;;;;;;;;;;;;;10.26;100.00;97070.59;5073081;28;19939;-78
2021/12/29 10:05:27;;;;;;;;;;;;;;;10.34;100.00;97074.63;5068863;28;19967;-78
2021/12/29 10:08:01;;;;;;;;;;;;;;;10.75;100.00;97068.28;5064677;28;20361;-77
2021/12/29 10:10:29;;;;;;;;;;;;;;;10.47;100.00;97056.44;5088211;28;20014;-77
2021/12/29 10:12:57;;;;;;;;;;;;;;;10.43;100.00;97063.44;5076585;28;19925;-79
2021/12/29 10:15:31;;;;;;;;;;;;;;;10.45;100.00;97063.75;5096454;28;19924;-78
2021/12/29 10:18:06;;;;;;;;;;;;;;;10.66;100.00;97066.28;5085733;28;19928;-78
2021/12/29 10:20:42;;;;;;;;;;;;;;;10.42;100.00;97064.69;5073004;28;19924;-78
2021/12/29 10:23:14;;;;;;;;;;;;;;;10.58;100.00;97050.34;5034631;28;19932;-78
2021/12/29 10:25:42;;;;;;;;;;;;;;;10.67;100.00;97044.72;5056906;28;19925;-78
2021/12/29 10:28:18;;;;;;;;;;;;;;;10.56;100.00;97044.44;5074295;28;20398;-77
2021/12/29 10:30:45;;;;;;;;;;;;;;;10.96;100.00;97042.84;5066402;28;19928;-77
2021/12/29 10:33:13;;;;;;;;;;;;;;;11.02;100.00;97034.63;5057811;28;19925;-77
2021/12/29 10:35:40;;;;;;;;;;;;;;;10.74;100.00;97042.34;5073355;28;19924;-77
2021/12/29 10:38:12;;;;;;;;;;;;;;;10.79;100.00;97049.31;5074537;28;19929;-77
2021/12/29 10:40:39;;;;;;;;;;;;;;;10.99;100.00;97055.13;5073893;28;20026;-78
2021/12/29 10:43:07;;;;;;;;;;;;;;;11.05;100.00;97049.66;5068172;28;20016;-78
2021/12/29 10:45:38;;;;;;;;;;;;;;;10.82;100.00;97056.75;5055423;28;20458;-78
2021/12/29 10:48:25;;;;;;;;;;;;;;;11.21;100.00;97047.22;5065860;28;19967;-77
2021/12/29 10:51:01;;;;;;;;;;;;;;;11.33;100.00;97057.38;5073884;28;19931;-77
2021/12/29 10:53:30;;;;;;;;;;;;;;;11.16;100.00;97041.50;5073521;28;20387;-77
2021/12/29 10:55:58;;;;;;;;;;;;;;;11.27;100.00;97050.16;5057365;28;19925;-76
2021/12/29 10:58:27;;;;;;;;;;;;;;;11.16;100.00;97050.69;5074585;28;19924;-77
2021/12/29 11:01:05;;;;;;;;;;;;;;;11.61;100.00;97041.97;5072891;28;20422;-75
2021/12/29 11:03:34;;;;;;;;;;;;;;;11.39;100.00;97035.16;5073776;28;19932;-75
2021/12/29 11:06:02;;;;;;;;;;;;;;;11.70;100.00;97022.34;5074619;28;19924;-76
2021/12/29 11:08:32;;;;;;;;;;;;;;;11.54;100.00;97030.38;5073038;28;20426;-75
2021/12/29 11:11:04;;;;;;;;;;;;;;;11.91;100.00;97040.78;5073127;28;19924;-75
2021/12/29 11:13:34;;;;;;;;;;;;;;;11.19;100.00;97032.97;5079350;28;19931;-74
2021/12/29 11:16:05;;;;;;;;;;;;;;;11.47;100.00;97042.69;5084571;28;19971;-77
2021/12/29 11:18:43;;;;;;;;;;;;;;;11.77;100.00;97032.38;5075262;28;19963;-76
2021/12/29 11:21:11;;;;;;;;;;;;;;;11.96;100.00;97033.75;5060423;28;19928;-75
2021/12/29 11:23:41;;;;;;;;;;;;;;;11.61;100.00;97041.97;5064214;28;19928;-75
2021/12/29 11:26:11;;;;;;;;;;;;;;;11.96;100.00;97040.13;5073884;28;19925;-75
2021/12/29 11:28:39;;;;;;;;;;;;;;;11.96;100.00;97059.72;5067040;28;19932;-75
2021/12/29 11:31:08;;;;;;;;;;;;;;;12.46;100.00;97055.75;5071741;28;19924;-75
2021/12/29 11:33:35;;;;;;;;;;;;;;;12.47;100.00;97051.72;5072030;28;19926;-75
2021/12/29 11:36:03;;;;;;;;;;;;;;;12.77;100.00;97060.09;5074056;28;19924;-76
2021/12/29 11:38:30;;;;;;;;;;;;;;;12.58;100.00;97046.31;5073433;28;19925;-75
2021/12/29 11:40:59;;;;;;;;;;;;;;;12.83;100.00;97072.16;5072177;28;19978;-75
2021/12/29 11:43:30;;;;;;;;;;;;;;;13.11;100.00;97064.97;5071228;28;20283;-75
2021/12/29 11:45:57;;;;;;;;;;;;;;;13.06;100.00;97062.84;5073905;28;20317;-75
2021/12/29 11:48:26;;;;;;;;;;;;;;;13.00;100.00;97071.19;5073811;28;20278;-75
2021/12/29 11:50:56;;;;;;;;;;;;;;;12.96;100.00;97072.63;5074059;28;19964;-74
2021/12/29 11:53:29;;;;;;;;;;;;;;;13.02;100.00;97084.72;5073559;28;20067;-75
2021/12/29 11:56:04;;;;;;;;;;;;;;;12.85;100.00;97075.25;5073638;28;19925;-74
2021/12/29 11:58:34;;;;;;;;;;;;;;;13.01;100.00;97083.94;5073909;28;19942;-75
2021/12/29 12:01:12;;;;;;;;;;;;;;;12.89;100.00;97087.78;5072625;28;19951;-75
2021/12/29 12:03:41;;;;;;;;;;;;;;;13.19;100.00;97089.28;5072253;28;20019;-75
2021/12/29 12:06:29;;;;;;;;;;;;;;;13.35;100.00;97077.56;5072327;28;19924;-75
2021/12/29 12:09:01;;;;;;;;;;;;;;;13.33;100.00;97080.06;5073596;28;19971;-75
2021/12/29 12:11:28;;;;;;;;;;;;;;;13.37;100.00;97077.06;5072351;28;19997;-76
2021/12/29 12:13:55;;;;;;;;;;;;;;;13.30;100.00;97088.72;5071957;28;19925;-75
2021/12/29 12:16:25;;;;;;;;;;;;;;;13.39;100.00;97086.53;5072265;28;19925;-75
2021/12/29 12:18:52;;;;;;;;;;;;;;;13.69;100.00;97081.56;5055616;28;20308;-75
2021/12/29 12:21:21;;;;;;;;;;;;;;;13.63;100.00;97087.09;5072137;28;19925;-74
2021/12/29 12:23:48;;;;;;;;;;;;;;;13.67;100.00;97089.72;5072178;28;20615;-75
2021/12/29 12:26:18;;;;;;;;;;;;;;;13.63;100.00;97089.16;5073328;28;20065;-75
2021/12/29 12:28:46;;;;;;;;;;;;;;;13.55;100.00;97111.25;5072954;28;19932;-76
2021/12/29 12:31:24;;;;;;;;;;;;;;;13.57;100.00;97097.47;5059738;28;19990;-76
2021/12/29 12:33:53;;;;;;;;;;;;;;;13.54;100.00;97104.06;5077438;28;19956;-75
2021/12/29 12:36:30;;;;;;;;;;;;;;;13.59;100.00;97122.25;5075958;28;20390;-75
2021/12/29 12:39:12;;;;;;;;;;;;;;;13.65;100.00;97125.91;5042944;28;20373;-75
2021/12/29 12:41:44;;;;;;;;;;;;;;;13.57;100.00;97136.75;5076125;28;20516;-75
2021/12/29 12:44:11;;;;;;;;;;;;;;;13.84;100.00;97138.41;5077032;28;19924;-76
2021/12/29 12:46:43;;;;;;;;;;;;;;;13.66;100.00;97142.25;5077891;28;20399;-75
2021/12/29 12:49:16;;;;;;;;;;;;;;;13.68;100.00;97141.75;5077026;28;19947;-75
2021/12/29 12:51:55;;;;;;;;;;;;;;;13.81;100.00;97133.78;5058578;28;19928;-74
2021/12/29 12:54:24;;;;;;;;;;;;;;;13.36;100.00;97126.03;5076437;28;19924;-75
2021/12/29 12:56:51;;;;;;;;;;;;;;;13.55;100.00;97138.53;5076350;28;19924;-75
2021/12/29 12:59:19;;;;;;;;;;;;;;;13.52;100.00;97140.28;5076513;28;19928;-75
2021/12/29 13:01:50;;;;;;;;;;;;;;;13.68;100.00;97145.34;5077022;28;19924;-75
2021/12/29 13:04:17;;;;;;;;;;;;;;;13.77;100.00;97150.81;5058839;28;19928;-75